createdAt,value
2022-09-30T00:01:34.848Z,96130.63
2022-09-30T00:04:03.441Z,96127.94
2022-09-30T00:06:35.258Z,96127.09
2022-09-30T00:09:03.774Z,96136.16
2022-09-30T00:11:33.981Z,96141.38
2022-09-30T00:14:02.314Z,96147.75
2022-09-30T00:16:31.751Z,96142.50
2022-09-30T00:19:00.794Z,96147.88
2022-09-30T00:21:30.624Z,96138.13
2022-09-30T00:24:00.365Z,96147.03
2022-09-30T00:26:28.607Z,96146.19
2022-09-30T00:28:59.077Z,96142.66
2022-09-30T00:31:28.416Z,96148.88
2022-09-30T00:34:09.135Z,96151.56
2022-09-30T00:36:39.185Z,96147.16
2022-09-30T00:39:09.412Z,96146.31
2022-09-30T00:41:38.639Z,96141.78
2022-09-30T00:44:44.517Z,96143.63
2022-09-30T00:47:28.706Z,96141.94
2022-09-30T00:49:57.234Z,96141.06
2022-09-30T00:52:25.609Z,96143.75
2022-09-30T00:54:56.070Z,96137.53
2022-09-30T00:57:24.369Z,96145.59
2022-09-30T00:59:52.594Z,96142.06
2022-09-30T01:02:20.918Z,96150.97
2022-09-30T01:04:49.230Z,96152.84
2022-09-30T01:07:20.949Z,96144.03
2022-09-30T01:09:49.314Z,96126.91
2022-09-30T01:12:21.566Z,96136.94
2022-09-30T01:14:53.319Z,96134.25
2022-09-30T01:17:24.606Z,96140.66
2022-09-30T01:20:13.123Z,96133.41
2022-09-30T01:22:42.885Z,96140.66
2022-09-30T01:25:20.166Z,96142.31
2022-09-30T01:27:57.170Z,96139.63
2022-09-30T01:30:34.600Z,96137.09
2022-09-30T01:33:13.510Z,96138.91
2022-09-30T01:35:51.262Z,96137.09
2022-09-30T01:38:24.959Z,96140.75
2022-09-30T01:40:56.903Z,96144.31
2022-09-30T01:43:29.883Z,96149.69
2022-09-30T01:46:00.654Z,96146.13
2022-09-30T01:48:32.694Z,96149.69
2022-09-30T01:51:01.873Z,96148.81
2022-09-30T01:53:33.124Z,96131.00
2022-09-30T01:56:03.053Z,96128.31
2022-09-30T01:58:38.581Z,96115.72
2022-09-30T02:01:10.232Z,96128.31
2022-09-30T02:03:39.770Z,96123.78
2022-09-30T02:06:09.918Z,96122.94
2022-09-30T02:08:41.751Z,96111.31
2022-09-30T02:11:12.238Z,96111.31
2022-09-30T02:13:42.996Z,96116.69
2022-09-30T02:16:14.895Z,96114.00
2022-09-30T02:18:44.375Z,96109.63
2022-09-30T02:21:12.853Z,96104.25
2022-09-30T02:23:42.707Z,96114.28
2022-09-30T02:26:13.083Z,96113.28
2022-09-30T02:28:43.457Z,96098.16
2022-09-30T02:31:13.387Z,96110.59
2022-09-30T02:33:43.662Z,96106.22
2022-09-30T02:36:14.146Z,96121.50
2022-09-30T02:38:43.490Z,96120.63
2022-09-30T02:41:13.243Z,96119.69
2022-09-30T02:43:42.234Z,96119.69
2022-09-30T02:46:16.111Z,96120.63
2022-09-30T02:48:45.566Z,96119.78
2022-09-30T02:51:17.080Z,96123.34
2022-09-30T02:53:47.558Z,96132.41
2022-09-30T02:56:20.952Z,96126.03
2022-09-30T02:58:49.261Z,96141.19
2022-09-30T03:01:18.969Z,96138.59
2022-09-30T03:03:48.195Z,96136.78
2022-09-30T03:06:16.444Z,96134.22
2022-09-30T03:08:45.037Z,96141.28
2022-09-30T03:11:15.334Z,96143.16
2022-09-30T03:14:07.619Z,96144.97
2022-09-30T03:16:45.909Z,96141.44
2022-09-30T03:19:23.175Z,96148.59
2022-09-30T03:22:01.919Z,96148.59
2022-09-30T03:24:43.277Z,96154.88
2022-09-30T03:27:15.756Z,96160.38
2022-09-30T03:29:48.130Z,96159.50
2022-09-30T03:32:26.566Z,96163.06
2022-09-30T03:35:02.418Z,96172.94
2022-09-30T03:37:34.063Z,96169.41
2022-09-30T03:40:04.060Z,96176.50
2022-09-30T03:42:36.272Z,96172.94
2022-09-30T03:45:06.542Z,96174.78
2022-09-30T03:47:37.330Z,96177.59
2022-09-30T03:50:08.638Z,96174.91
2022-09-30T03:52:36.938Z,96184.69
2022-09-30T03:55:06.561Z,96188.34
2022-09-30T03:57:34.838Z,96186.53
2022-09-30T04:00:03.666Z,96183.97
2022-09-30T04:02:33.352Z,96183.97
2022-09-30T04:05:03.028Z,96192.03
2022-09-30T04:07:31.349Z,96185.81
2022-09-30T04:09:59.602Z,96190.31
2022-09-30T04:12:27.922Z,96184.94
2022-09-30T04:14:56.186Z,96191.19
2022-09-30T04:17:24.596Z,96198.38
2022-09-30T04:19:52.874Z,96200.22
2022-09-30T04:22:26.276Z,96201.94
2022-09-30T04:24:54.885Z,96199.09
2022-09-30T04:27:23.401Z,96199.97
2022-09-30T04:29:51.850Z,96204.47
2022-09-30T04:32:20.085Z,96214.28
2022-09-30T04:34:48.622Z,96209.63
2022-09-30T04:37:16.885Z,96212.31
2022-09-30T04:39:46.616Z,96212.19
2022-09-30T04:42:14.962Z,96218.50
2022-09-30T04:44:43.353Z,96213.13
2022-09-30T04:47:11.644Z,96216.56
2022-09-30T04:49:40.082Z,96227.31
2022-09-30T04:52:08.486Z,96225.84
2022-09-30T04:54:36.758Z,96225.28
2022-09-30T04:57:07.300Z,96234.34
2022-09-30T04:59:35.720Z,96235.88
2022-09-30T05:02:04.005Z,96244.66
2022-09-30T05:04:33.628Z,96239.44
2022-09-30T05:07:03.845Z,96242.25
2022-09-30T05:09:32.311Z,96241.25
2022-09-30T05:12:02.422Z,96251.91
2022-09-30T05:14:32.436Z,96250.91
2022-09-30T05:17:01.086Z,96249.94
2022-09-30T05:19:29.942Z,96248.97
2022-09-30T05:21:58.277Z,96257.91
2022-09-30T05:24:26.698Z,96263.13
2022-09-30T05:26:54.953Z,96276.44
2022-09-30T05:29:23.349Z,96276.34
2022-09-30T05:31:53.135Z,96270.81
2022-09-30T05:34:21.563Z,96274.38
2022-09-30T05:36:49.981Z,96282.28
2022-09-30T05:39:18.411Z,96282.16
2022-09-30T05:41:46.600Z,96284.84
2022-09-30T05:44:15.472Z,96285.69
2022-09-30T05:46:44.452Z,96282.88
2022-09-30T05:49:14.562Z,96282.88
2022-09-30T05:51:42.952Z,96290.81
2022-09-30T05:54:11.230Z,96297.19
2022-09-30T05:56:39.547Z,96300.00
2022-09-30T05:59:07.813Z,96295.59
2022-09-30T06:01:36.139Z,96302.81
2022-09-30T06:04:04.513Z,96299.28
2022-09-30T06:06:34.398Z,96300.13
2022-09-30T06:09:02.711Z,96309.03
2022-09-30T06:11:31.921Z,96306.34
2022-09-30T06:14:00.280Z,96315.28
2022-09-30T06:16:28.668Z,96319.78
2022-09-30T06:18:56.903Z,96322.47
2022-09-30T06:21:25.197Z,96325.03
2022-09-30T06:23:54.863Z,96329.59
2022-09-30T06:26:23.146Z,96323.34
2022-09-30T06:28:51.926Z,96323.34
2022-09-30T06:31:20.373Z,96329.44
2022-09-30T06:33:48.625Z,96329.59
2022-09-30T06:36:17.374Z,96337.38
2022-09-30T06:38:45.703Z,96336.28
2022-09-30T06:41:15.762Z,96338.81
2022-09-30T06:43:55.658Z,96344.06
2022-09-30T06:46:31.745Z,96341.13
2022-09-30T06:49:11.219Z,96348.19
2022-09-30T06:51:42.310Z,96353.56
2022-09-30T06:54:11.053Z,96357.97
2022-09-30T06:56:40.793Z,96357.25
2022-09-30T06:59:09.131Z,96358.94
2022-09-30T07:01:37.391Z,96361.53
2022-09-30T07:04:09.760Z,96366.91
2022-09-30T07:06:39.221Z,96381.09
2022-09-30T07:09:07.931Z,96389.97
2022-09-30T07:11:36.765Z,96393.66
2022-09-30T07:14:06.502Z,96388.28
2022-09-30T07:16:35.334Z,96398.06
2022-09-30T07:19:03.730Z,96395.38
2022-09-30T07:21:32.339Z,96406.13
2022-09-30T07:24:02.049Z,96408.72
2022-09-30T07:26:31.273Z,96409.81
2022-09-30T07:29:00.272Z,96400.03
2022-09-30T07:31:34.884Z,96417.28
2022-09-30T07:34:04.223Z,96420.94
2022-09-30T07:36:34.032Z,96423.63
2022-09-30T07:39:06.012Z,96436.94
2022-09-30T07:41:35.916Z,96443.31
2022-09-30T07:44:06.715Z,96439.78
2022-09-30T07:46:39.398Z,96445.88
2022-09-30T07:49:09.261Z,96442.31
2022-09-30T07:51:39.235Z,96434.25
2022-09-30T07:54:09.065Z,96440.50
2022-09-30T07:57:08.044Z,96439.53
2022-09-30T07:59:27.396Z,96446.75
2022-09-30T08:01:57.591Z,96456.41
2022-09-30T08:04:26.289Z,96465.44
2022-09-30T08:06:55.899Z,96469.13
2022-09-30T08:09:25.399Z,96465.56
2022-09-30T08:11:53.884Z,96483.53
2022-09-30T08:14:23.138Z,96479.88
2022-09-30T08:16:51.636Z,96485.25
2022-09-30T08:19:22.283Z,96486.09
2022-09-30T08:21:50.711Z,96499.44
2022-09-30T08:24:19.038Z,96492.19
2022-09-30T08:26:47.517Z,96488.69
2022-09-30T08:29:24.927Z,96500.25
2022-09-30T08:31:58.564Z,96503.81
2022-09-30T08:34:33.913Z,96502.94
2022-09-30T08:37:06.318Z,96498.56
2022-09-30T08:39:37.396Z,96503.94
2022-09-30T08:42:45.315Z,96508.47
2022-09-30T08:45:20.385Z,96511.16
2022-09-30T08:47:51.333Z,96506.78
2022-09-30T08:50:24.936Z,96507.59
2022-09-30T08:52:55.222Z,96508.47
2022-09-30T08:55:24.827Z,96514.84
2022-09-30T08:57:53.509Z,96505.06
2022-09-30T09:00:22.643Z,96500.41
2022-09-30T09:02:51.961Z,96514.72
2022-09-30T09:05:28.598Z,96527.16
2022-09-30T09:08:02.789Z,96539.66
2022-09-30T09:10:35.761Z,96549.53
2022-09-30T09:13:07.910Z,96558.63
2022-09-30T09:15:47.326Z,96549.69
2022-09-30T09:18:36.316Z,96538.06
2022-09-30T09:21:14.954Z,96529.25
2022-09-30T09:23:43.216Z,96536.72
2022-09-30T09:26:12.151Z,96544.94
2022-09-30T09:28:42.060Z,96555.69
2022-09-30T09:31:14.499Z,96560.22
2022-09-30T09:33:42.946Z,96553.75
2022-09-30T09:36:19.811Z,96550.19
2022-09-30T09:38:58.598Z,96560.81
2022-09-30T09:41:32.660Z,96558.13
2022-09-30T09:44:03.178Z,96563.50
2022-09-30T09:46:32.622Z,96558.84
2022-09-30T09:49:41.785Z,96553.47
2022-09-30T09:52:24.559Z,96549.81
2022-09-30T09:54:57.006Z,96554.19
2022-09-30T09:57:27.921Z,96563.13
2022-09-30T09:59:57.449Z,96568.50
2022-09-30T10:02:26.767Z,96577.31
2022-09-30T10:05:00.301Z,96570.09
2022-09-30T10:07:30.866Z,96572.66
2022-09-30T10:10:12.515Z,96581.47
2022-09-30T10:12:41.129Z,96581.47
2022-09-30T10:15:20.410Z,96585.84
2022-09-30T10:17:53.235Z,96585.75
2022-09-30T10:20:26.059Z,96591.94
2022-09-30T10:23:09.570Z,96590.13
2022-09-30T10:25:37.950Z,96591.84
2022-09-30T10:28:21.648Z,96590.84
2022-09-30T10:30:51.007Z,96585.47
2022-09-30T10:33:25.496Z,96596.22
2022-09-30T10:36:00.608Z,96593.41
2022-09-30T10:38:32.248Z,96598.06
2022-09-30T10:41:00.651Z,96597.09
2022-09-30T10:43:31.517Z,96606.88
2022-09-30T10:46:24.742Z,96607.72
2022-09-30T10:48:52.158Z,96604.16
2022-09-30T10:51:25.084Z,96606.88
2022-09-30T10:53:55.166Z,96606.03
2022-09-30T10:56:45.065Z,96605.16
2022-09-30T10:59:29.807Z,96608.72
2022-09-30T11:02:00.061Z,96612.38
2022-09-30T11:04:32.283Z,96604.31
2022-09-30T11:07:04.863Z,96602.59
2022-09-30T11:09:37.943Z,96608.81
2022-09-30T11:12:11.526Z,96627.66
2022-09-30T11:14:43.459Z,96627.78
2022-09-30T11:17:18.041Z,96639.28
2022-09-30T11:19:51.273Z,96626.81
2022-09-30T11:22:29.607Z,96625.97
2022-09-30T11:24:59.507Z,96645.66
2022-09-30T11:27:34.175Z,96646.47
2022-09-30T11:30:09.930Z,96648.34
2022-09-30T11:32:54.430Z,96642.97
2022-09-30T11:35:29.885Z,96646.63
2022-09-30T11:38:06.022Z,96640.38
2022-09-30T11:40:39.486Z,96638.53
2022-09-30T11:43:15.579Z,96629.63
2022-09-30T11:45:58.664Z,96639.53
2022-09-30T11:48:35.499Z,96653.00
2022-09-30T11:51:09.122Z,96653.00
2022-09-30T11:53:43.642Z,96663.75
2022-09-30T11:56:20.962Z,96667.28
2022-09-30T11:58:50.449Z,96663.63
2022-09-30T12:01:22.526Z,96661.78
2022-09-30T12:03:56.274Z,96664.50
2022-09-30T12:06:28.237Z,96668.88
2022-09-30T12:08:58.229Z,96672.56
2022-09-30T12:11:34.145Z,96674.50
2022-09-30T12:14:04.909Z,96669.13
2022-09-30T12:16:33.946Z,96670.84
2022-09-30T12:19:05.802Z,96666.31
2022-09-30T12:21:37.517Z,96668.13
2022-09-30T12:24:08.477Z,96682.47
2022-09-30T12:26:38.391Z,96686.00
2022-09-30T12:29:25.714Z,96677.06
2022-09-30T12:32:10.024Z,96686.84
2022-09-30T12:34:46.149Z,96682.47
2022-09-30T12:37:22.670Z,96688.69
2022-09-30T12:40:06.802Z,96683.31
2022-09-30T12:43:30.353Z,96694.09
2022-09-30T12:46:15.118Z,96701.28
2022-09-30T12:48:45.227Z,96696.03
2022-09-30T12:51:13.972Z,96703.13
2022-09-30T12:53:42.174Z,96707.63
2022-09-30T12:56:11.735Z,96704.94
2022-09-30T12:58:44.158Z,96700.56
2022-09-30T13:01:17.027Z,96700.56
2022-09-30T13:03:47.830Z,96702.38
2022-09-30T13:06:16.321Z,96711.31
2022-09-30T13:08:47.395Z,96706.06
2022-09-30T13:11:40.504Z,96719.63
2022-09-30T13:14:26.200Z,96715.22
2022-09-30T13:17:21.947Z,96718.06
2022-09-30T13:19:51.948Z,96716.31
2022-09-30T13:22:57.510Z,96717.19
2022-09-30T13:25:25.711Z,96709.97
2022-09-30T13:27:55.652Z,96720.84
2022-09-30T13:30:34.590Z,96713.63
2022-09-30T13:33:34.235Z,96720.84
2022-09-30T13:36:10.342Z,96719.16
2022-09-30T13:38:40.602Z,96720.97
2022-09-30T13:41:20.633Z,96721.84
2022-09-30T13:43:53.653Z,96716.44
2022-09-30T13:46:26.362Z,96725.38
2022-09-30T13:48:58.778Z,96731.59
2022-09-30T13:51:28.777Z,96728.06
2022-09-30T13:53:59.787Z,96734.53
2022-09-30T13:56:29.466Z,96729.31
2022-09-30T13:59:21.906Z,96747.38
2022-09-30T14:02:04.003Z,96750.19
2022-09-30T14:05:01.088Z,96747.47
2022-09-30T14:07:40.150Z,96739.31
2022-09-30T14:10:25.528Z,96734.78
2022-09-30T14:13:03.165Z,96738.19
2022-09-30T14:15:57.481Z,96734.53
2022-09-30T14:18:54.706Z,96739.78
2022-09-30T14:21:39.826Z,96747.88
2022-09-30T14:24:12.382Z,96751.56
2022-09-30T14:26:53.023Z,96758.75
2022-09-30T14:29:25.013Z,96756.94
2022-09-30T14:31:53.368Z,96766.69
2022-09-30T14:34:22.175Z,96764.00
2022-09-30T14:36:52.030Z,96762.19
2022-09-30T14:39:21.442Z,96766.69
2022-09-30T14:41:51.903Z,96765.00
2022-09-30T14:44:20.718Z,96772.22
2022-09-30T14:46:49.460Z,96774.16
2022-09-30T14:49:19.072Z,96775.25
2022-09-30T14:51:48.644Z,96770.72
2022-09-30T14:54:19.755Z,96775.38
2022-09-30T14:56:48.359Z,96776.25
2022-09-30T14:59:22.501Z,96785.13
2022-09-30T15:01:51.755Z,96788.81
2022-09-30T15:04:21.301Z,96788.81
2022-09-30T15:06:50.942Z,96791.50
2022-09-30T15:09:31.587Z,96795.16
2022-09-30T15:12:05.087Z,96803.13
2022-09-30T15:14:34.174Z,96795.16
2022-09-30T15:17:06.064Z,96798.84
2022-09-30T15:19:35.439Z,96797.03
2022-09-30T15:22:04.643Z,96796.16
2022-09-30T15:24:34.510Z,96802.41
2022-09-30T15:27:02.956Z,96801.53
2022-09-30T15:29:31.311Z,96804.34
2022-09-30T15:32:02.382Z,96803.63
2022-09-30T15:34:30.927Z,96810.94
2022-09-30T15:37:04.665Z,96812.03
2022-09-30T15:39:48.979Z,96805.06
2022-09-30T15:42:30.433Z,96810.56
2022-09-30T15:44:59.437Z,96810.78
2022-09-30T15:47:27.851Z,96817.88
2022-09-30T15:49:56.094Z,96814.19
2022-09-30T15:52:36.587Z,96817.75
2022-09-30T15:55:37.050Z,96820.44
2022-09-30T15:58:05.310Z,96831.94
2022-09-30T16:00:43.044Z,96833.75
2022-09-30T16:03:32.691Z,96829.25
2022-09-30T16:06:09.283Z,96826.56
2022-09-30T16:08:44.338Z,96833.75
2022-09-30T16:11:20.625Z,96835.50
2022-09-30T16:13:49.107Z,96830.13
2022-09-30T16:16:21.418Z,96837.09
2022-09-30T16:18:49.987Z,96839.78
2022-09-30T16:21:44.389Z,96835.25
2022-09-30T16:24:48.798Z,96843.31
2022-09-30T16:27:39.943Z,96850.06
2022-09-30T16:30:08.701Z,96853.25
2022-09-30T16:32:41.080Z,96853.88
2022-09-30T16:35:16.573Z,96851.06
2022-09-30T16:37:45.359Z,96853.66
2022-09-30T16:40:31.562Z,96856.19
2022-09-30T16:43:04.363Z,96860.50
2022-09-30T16:45:35.221Z,96856.94
2022-09-30T16:48:03.789Z,96861.25
2022-09-30T16:50:35.105Z,96855.72
2022-09-30T16:53:03.277Z,96851.22
2022-09-30T16:55:31.634Z,96851.09
2022-09-30T16:58:04.762Z,96849.25
2022-09-30T17:00:33.042Z,96850.97
2022-09-30T17:03:01.264Z,96846.31
2022-09-30T17:05:29.530Z,96855.25
2022-09-30T17:07:59.271Z,96859.69
2022-09-30T17:10:29.119Z,96858.69
2022-09-30T17:12:57.651Z,96862.47
2022-09-30T17:15:28.199Z,96861.63
2022-09-30T17:17:56.626Z,96863.31
2022-09-30T17:20:24.914Z,96859.78
2022-09-30T17:22:53.234Z,96860.50
2022-09-30T17:25:21.695Z,96863.31
2022-09-30T17:27:50.701Z,96870.53
2022-09-30T17:30:19.376Z,96867.00
2022-09-30T17:32:49.114Z,96864.41
2022-09-30T17:35:17.521Z,96865.28
2022-09-30T17:37:46.653Z,96868.84
2022-09-30T17:40:33.134Z,96872.25
2022-09-30T17:43:11.657Z,96870.44
2022-09-30T17:45:41.350Z,96868.47
2022-09-30T17:48:11.939Z,96875.69
2022-09-30T17:50:40.889Z,96875.81
2022-09-30T17:53:09.428Z,96881.19
2022-09-30T17:55:37.673Z,96884.72
2022-09-30T17:58:06.153Z,96895.38
2022-09-30T18:00:34.351Z,96908.84
2022-09-30T18:03:03.474Z,96904.28
2022-09-30T18:05:33.180Z,96906.16
2022-09-30T18:08:01.712Z,96913.22
2022-09-30T18:10:30.259Z,96909.59
2022-09-30T18:12:59.956Z,96899.66
2022-09-30T18:15:28.604Z,96901.50
2022-09-30T18:17:57.783Z,96908.59
2022-09-30T18:20:26.248Z,96909.47
2022-09-30T18:22:56.949Z,96912.16
2022-09-30T18:25:26.411Z,96919.22
2022-09-30T18:27:56.339Z,96911.16
2022-09-30T18:30:25.434Z,96915.44
2022-09-30T18:32:54.533Z,96910.19
2022-09-30T18:35:24.673Z,96917.19
2022-09-30T18:37:55.464Z,96919.00
2022-09-30T18:40:26.269Z,96917.19
2022-09-30T18:42:58.690Z,96922.56
2022-09-30T18:45:27.663Z,96922.56
2022-09-30T18:47:57.035Z,96929.53
2022-09-30T18:50:26.858Z,96924.13
2022-09-30T18:52:57.068Z,96925.88
2022-09-30T18:55:25.967Z,96920.34
2022-09-30T18:57:55.685Z,96917.53
2022-09-30T19:00:24.078Z,96918.28
2022-09-30T19:02:53.437Z,96913.75
2022-09-30T19:05:22.408Z,96906.44
2022-09-30T19:07:50.761Z,96904.59
2022-09-30T19:10:20.499Z,96904.47
2022-09-30T19:12:50.090Z,96913.28
2022-09-30T19:15:18.818Z,96914.88
2022-09-30T19:17:47.103Z,96913.84
2022-09-30T19:20:16.733Z,96917.00
2022-09-30T19:22:45.039Z,96914.81
2022-09-30T19:25:13.265Z,96912.97
2022-09-30T19:27:43.430Z,96912.13
2022-09-30T19:30:12.949Z,96915.66
2022-09-30T19:32:41.291Z,96907.59
2022-09-30T19:35:12.088Z,96897.94
2022-09-30T19:37:55.795Z,96898.03
2022-09-30T19:40:28.390Z,96906.25
2022-09-30T19:42:58.105Z,96898.28
2022-09-30T19:45:27.417Z,96895.47
2022-09-30T19:47:56.897Z,96894.72
2022-09-30T19:50:25.237Z,96890.22
2022-09-30T19:52:57.259Z,96896.47
2022-09-30T19:55:26.634Z,96886.66
2022-09-30T19:57:54.930Z,96897.41
2022-09-30T20:00:24.714Z,96898.28
2022-09-30T20:02:52.893Z,96905.50
2022-09-30T20:05:21.680Z,96902.81
2022-09-30T20:07:51.373Z,96900.97
2022-09-30T20:10:20.134Z,96901.94
2022-09-30T20:12:48.489Z,96901.94
2022-09-30T20:15:34.249Z,96902.81
2022-09-30T20:18:04.035Z,96903.81
2022-09-30T20:20:42.867Z,96902.06
2022-09-30T20:23:11.081Z,96915.41
2022-09-30T20:25:39.555Z,96914.56
2022-09-30T20:28:07.994Z,96910.88
2022-09-30T20:30:39.550Z,96912.84
2022-09-30T20:33:09.277Z,96919.09
2022-09-30T20:35:37.814Z,96911.97
2022-09-30T20:38:06.925Z,96911.00
2022-09-30T20:40:35.355Z,96919.09
2022-09-30T20:43:04.378Z,96915.53
2022-09-30T20:45:32.681Z,96924.47
2022-09-30T20:48:01.114Z,96920.91
2022-09-30T20:50:36.550Z,96922.75
2022-09-30T20:53:06.905Z,96926.31
2022-09-30T20:55:36.663Z,96914.66
2022-09-30T20:58:05.681Z,96912.94
2022-09-30T21:00:34.650Z,96914.66
2022-09-30T21:03:03.056Z,96924.59
2022-09-30T21:05:32.800Z,96934.47
2022-09-30T21:08:02.349Z,96937.16
2022-09-30T21:10:31.814Z,96933.59
2022-09-30T21:13:02.239Z,96941.59
2022-09-30T21:15:31.344Z,96929.09
2022-09-30T21:17:59.818Z,96932.75
2022-09-30T21:20:28.051Z,96925.53
2022-09-30T21:22:57.756Z,96926.53
2022-09-30T21:25:26.066Z,96916.72
2022-09-30T21:27:54.553Z,96922.09
2022-09-30T21:30:23.599Z,96927.47
2022-09-30T21:32:51.914Z,96922.09
2022-09-30T21:35:21.174Z,96911.34
2022-09-30T21:37:50.005Z,96909.63
2022-09-30T21:40:20.322Z,96919.53
2022-09-30T21:42:48.827Z,96911.47
2022-09-30T21:45:18.799Z,96923.09
2022-09-30T21:47:47.111Z,96919.53
2022-09-30T21:50:15.419Z,96911.47
2022-09-30T21:52:45.794Z,96909.72
2022-09-30T21:55:15.108Z,96914.28
2022-09-30T21:57:46.027Z,96905.34
2022-09-30T22:00:14.512Z,96908.03
2022-09-30T22:02:42.748Z,96906.19
2022-09-30T22:05:11.039Z,96904.47
2022-09-30T22:07:39.371Z,96912.56
2022-09-30T22:10:09.126Z,96914.38
2022-09-30T22:12:38.410Z,96914.38
2022-09-30T22:15:09.437Z,96919.75
2022-09-30T22:17:37.874Z,96909.13
2022-09-30T22:20:07.046Z,96909.13
2022-09-30T22:22:35.709Z,96913.63
2022-09-30T22:25:03.978Z,96910.94
2022-09-30T22:27:32.481Z,96902.03
2022-09-30T22:30:00.778Z,96895.78
2022-09-30T22:32:30.414Z,96901.16
2022-09-30T22:35:15.850Z,96898.47
2022-09-30T22:38:01.688Z,96903.13
2022-09-30T22:40:29.990Z,96898.59
2022-09-30T22:42:58.162Z,96886.09
2022-09-30T22:45:26.839Z,96894.19
2022-09-30T22:47:57.053Z,96895.19
2022-09-30T22:50:28.817Z,96904.09
2022-09-30T22:52:58.162Z,96897.88
2022-09-30T22:55:26.455Z,96890.63
2022-09-30T22:57:54.687Z,96888.94
2022-09-30T23:00:22.923Z,96899.81
2022-09-30T23:02:52.998Z,96897.13
2022-09-30T23:05:22.786Z,96897.13
2022-09-30T23:07:51.206Z,96899.81
2022-09-30T23:10:19.495Z,96900.78
2022-09-30T23:12:47.818Z,96894.53
2022-09-30T23:15:16.238Z,96899.91
2022-09-30T23:17:44.457Z,96903.59
2022-09-30T23:20:12.929Z,96895.41
2022-09-30T23:22:42.879Z,96883.91
2022-09-30T23:25:11.488Z,96878.50
2022-09-30T23:27:39.759Z,96885.72
2022-09-30T23:30:08.824Z,96888.41
2022-09-30T23:32:37.970Z,96892.97
2022-09-30T23:35:06.857Z,96878.66
2022-09-30T23:37:35.297Z,96887.59
2022-09-30T23:40:05.367Z,96898.44
2022-09-30T23:42:33.802Z,96910.06
2022-09-30T23:45:01.988Z,96919.13
2022-09-30T23:47:30.435Z,96912.75
2022-09-30T23:49:58.664Z,96912.88
2022-09-30T23:52:26.918Z,96912.88
2022-09-30T23:54:55.522Z,96925.47
2022-09-30T23:57:25.306Z,96922.78
2022-09-30T23:59:53.618Z,96918.41
